createdAt,value
2023-05-05T00:00:49.902Z,16.4691
2023-05-05T00:01:52.355Z,16.6087
2023-05-05T00:02:54.866Z,16.5828
2023-05-05T00:03:57.574Z,16.5713
2023-05-05T00:05:00.008Z,16.7226
2023-05-05T00:06:02.459Z,16.7485
2023-05-05T00:07:04.909Z,16.8561
2023-05-05T00:08:07.577Z,17.1750
2023-05-05T00:09:10.054Z,17.3112
2023-05-05T00:10:12.486Z,17.1409
2023-05-05T00:11:15.259Z,16.8280
2023-05-05T00:12:17.761Z,16.6383
2023-05-05T00:13:20.364Z,16.4824
2023-05-05T00:14:22.811Z,16.3522
2023-05-05T00:15:25.289Z,16.2842
2023-05-05T00:16:28.047Z,16.1914
2023-05-05T00:17:30.516Z,16.1095
2023-05-05T00:18:33.019Z,16.0260
2023-05-05T00:19:35.473Z,15.9752
2023-05-05T00:20:37.953Z,16.0225
2023-05-05T00:21:40.429Z,16.1263
2023-05-05T00:22:42.930Z,16.1840
2023-05-05T00:23:45.406Z,16.1507
2023-05-05T00:24:47.902Z,16.1117
2023-05-05T00:25:50.773Z,16.1993
2023-05-05T00:26:53.276Z,16.2324
2023-05-05T00:27:55.783Z,16.1884
2023-05-05T00:28:58.280Z,16.1227
2023-05-05T00:30:00.780Z,16.1171
2023-05-05T00:31:03.283Z,16.1367
2023-05-05T00:32:05.787Z,16.1135
2023-05-05T00:33:08.353Z,16.0715
2023-05-05T00:34:10.898Z,16.1780
2023-05-05T00:35:13.392Z,16.1092
2023-05-05T00:36:15.861Z,16.0641
2023-05-05T00:37:18.371Z,15.9785
2023-05-05T00:38:21.101Z,15.9867
2023-05-05T00:39:23.613Z,15.9562
2023-05-05T00:40:26.134Z,15.9295
2023-05-05T00:41:28.681Z,16.0266
2023-05-05T00:42:31.202Z,15.9564
2023-05-05T00:43:33.766Z,15.9928
2023-05-05T00:44:36.306Z,15.9916
2023-05-05T00:45:38.796Z,16.0051
2023-05-05T00:46:41.435Z,15.9344
2023-05-05T00:47:43.941Z,15.9209
2023-05-05T00:48:46.419Z,15.8235
2023-05-05T00:49:48.916Z,15.7875
2023-05-05T00:50:51.388Z,15.7250
2023-05-05T00:51:53.840Z,15.6815
2023-05-05T00:52:56.317Z,15.6308
2023-05-05T00:53:58.823Z,15.5968
2023-05-05T00:55:01.318Z,15.5343
2023-05-05T00:56:03.762Z,15.5108
2023-05-05T00:57:06.219Z,15.4803
2023-05-05T00:58:08.686Z,15.4577
2023-05-05T00:59:11.148Z,15.4826
2023-05-05T01:00:13.631Z,15.4446
2023-05-05T01:01:16.100Z,15.4405
2023-05-05T01:02:18.539Z,15.4141
2023-05-05T01:03:21.051Z,15.3725
2023-05-05T01:04:23.550Z,15.3490
2023-05-05T01:05:25.974Z,15.3243
2023-05-05T01:06:28.462Z,15.2586
2023-05-05T01:07:30.907Z,15.2134
2023-05-05T01:08:33.373Z,15.1520
2023-05-05T01:09:35.893Z,15.1553
2023-05-05T01:10:38.325Z,15.2484
2023-05-05T01:11:40.824Z,15.3647
2023-05-05T01:12:43.333Z,15.5126
2023-05-05T01:13:45.797Z,15.6386
2023-05-05T01:14:48.268Z,15.5331
2023-05-05T01:15:50.773Z,15.4366
2023-05-05T01:16:53.197Z,15.3907
2023-05-05T01:17:55.699Z,15.2929
2023-05-05T01:18:58.185Z,15.2525
2023-05-05T01:20:00.745Z,15.1765
2023-05-05T01:21:03.224Z,15.1672
2023-05-05T01:22:05.700Z,15.1586
2023-05-05T01:23:08.178Z,15.1693
2023-05-05T01:24:10.917Z,15.1578
2023-05-05T01:25:13.364Z,15.0687
2023-05-05T01:26:15.788Z,14.9984
2023-05-05T01:27:18.257Z,14.9476
2023-05-05T01:28:20.739Z,14.9117
2023-05-05T01:29:23.242Z,14.8443
2023-05-05T01:30:25.709Z,14.8339
2023-05-05T01:31:28.248Z,14.8304
2023-05-05T01:32:30.716Z,14.8237
2023-05-05T01:33:33.109Z,14.8490
2023-05-05T01:34:35.628Z,14.8023
2023-05-05T01:35:38.075Z,14.7546
2023-05-05T01:36:40.528Z,14.7067
2023-05-05T01:37:43.020Z,14.7054
2023-05-05T01:38:45.711Z,14.6792
2023-05-05T01:39:48.166Z,14.6474
2023-05-05T01:40:50.635Z,14.6734
2023-05-05T01:41:53.066Z,14.6515
2023-05-05T01:42:55.565Z,14.6338
2023-05-05T01:43:58.038Z,14.6266
2023-05-05T01:45:00.509Z,14.5884
2023-05-05T01:46:03.236Z,14.5662
2023-05-05T01:47:05.741Z,14.5427
2023-05-05T01:48:08.189Z,14.5494
2023-05-05T01:49:10.648Z,14.5282
2023-05-05T01:50:13.112Z,14.6137
2023-05-05T01:51:15.573Z,14.7155
2023-05-05T01:52:18.044Z,14.7821
2023-05-05T01:53:20.740Z,14.8378
2023-05-05T01:54:23.185Z,14.8801
2023-05-05T01:55:25.645Z,14.8981
2023-05-05T01:56:28.366Z,14.9380
2023-05-05T01:57:30.815Z,15.0202
2023-05-05T01:58:33.517Z,15.1236
2023-05-05T01:59:36.014Z,15.0973
2023-05-05T02:00:38.494Z,15.1338
2023-05-05T02:01:41.057Z,15.0782
2023-05-05T02:02:43.576Z,15.0312
2023-05-05T02:03:46.128Z,15.0211
2023-05-05T02:04:48.600Z,15.0808
2023-05-05T02:05:51.388Z,15.0847
2023-05-05T02:06:53.837Z,15.0117
2023-05-05T02:07:56.329Z,14.9838
2023-05-05T02:08:58.838Z,14.9713
2023-05-05T02:10:01.357Z,15.4434
2023-05-05T02:11:03.915Z,15.9759
2023-05-05T02:12:06.416Z,16.1102
2023-05-05T02:13:09.016Z,15.7561
2023-05-05T02:14:11.762Z,15.5095
2023-05-05T02:15:14.281Z,15.5704
2023-05-05T02:16:16.901Z,15.5211
2023-05-05T02:17:19.472Z,15.4300
2023-05-05T02:18:21.949Z,15.3859
2023-05-05T02:19:22.321Z,15.3012
2023-05-05T02:20:24.848Z,15.2494
2023-05-05T02:21:27.684Z,15.2871
2023-05-05T02:22:30.140Z,15.2448
2023-05-05T02:23:32.683Z,15.1009
2023-05-05T02:24:35.170Z,15.1435
2023-05-05T02:25:37.638Z,15.1009
2023-05-05T02:26:40.400Z,15.0007
2023-05-05T02:27:42.872Z,14.9586
2023-05-05T02:28:45.633Z,14.9724
2023-05-05T02:29:48.080Z,14.9120
2023-05-05T02:30:50.745Z,14.8405
2023-05-05T02:31:53.472Z,14.7866
2023-05-05T02:32:55.979Z,14.7005
2023-05-05T02:33:58.782Z,14.6426
2023-05-05T02:35:01.254Z,14.6559
2023-05-05T02:36:03.959Z,14.7158
2023-05-05T02:37:06.411Z,14.7660
2023-05-05T02:38:08.823Z,14.7141
2023-05-05T02:39:11.585Z,14.6581
2023-05-05T02:40:14.063Z,14.6548
2023-05-05T02:41:16.824Z,14.6204
2023-05-05T02:42:19.244Z,14.5758
2023-05-05T02:43:21.733Z,14.5221
2023-05-05T02:44:24.533Z,14.4921
2023-05-05T02:45:26.937Z,14.4743
2023-05-05T02:46:29.700Z,14.3935
2023-05-05T02:47:32.147Z,14.3664
2023-05-05T02:48:34.620Z,14.3449
2023-05-05T02:49:37.314Z,14.3020
2023-05-05T02:50:39.812Z,14.3286
2023-05-05T02:51:42.275Z,14.3482
2023-05-05T02:52:44.719Z,14.3460
2023-05-05T02:53:47.165Z,14.3360
2023-05-05T02:54:49.595Z,14.2998
2023-05-05T02:55:52.061Z,14.2730
2023-05-05T02:56:54.490Z,14.2375
2023-05-05T02:57:56.917Z,14.2094
2023-05-05T02:58:59.381Z,14.1786
2023-05-05T03:00:01.835Z,14.1467
2023-05-05T03:01:04.296Z,14.1304
2023-05-05T03:02:07.079Z,14.1013
2023-05-05T03:03:09.595Z,14.1164
2023-05-05T03:04:12.072Z,14.1280
2023-05-05T03:05:14.481Z,14.1038
2023-05-05T03:06:17.046Z,14.0964
2023-05-05T03:07:19.499Z,14.1396
2023-05-05T03:08:21.916Z,14.1951
2023-05-05T03:09:24.394Z,14.1726
2023-05-05T03:10:26.841Z,14.1233
2023-05-05T03:11:29.300Z,14.0713
2023-05-05T03:12:31.779Z,14.0279
2023-05-05T03:13:34.189Z,14.0804
2023-05-05T03:14:36.661Z,14.0714
2023-05-05T03:15:39.111Z,14.0141
2023-05-05T03:16:41.638Z,13.9910
2023-05-05T03:17:44.142Z,13.9824
2023-05-05T03:18:46.602Z,14.0158
2023-05-05T03:19:49.062Z,13.9992
2023-05-05T03:20:51.491Z,14.0528
2023-05-05T03:21:53.949Z,14.1611
2023-05-05T03:22:56.380Z,14.1765
2023-05-05T03:23:58.836Z,14.3056
2023-05-05T03:25:01.287Z,14.4019
2023-05-05T03:26:03.739Z,14.4153
2023-05-05T03:27:06.389Z,14.3883
2023-05-05T03:28:08.804Z,14.3399
2023-05-05T03:29:11.234Z,14.3408
2023-05-05T03:30:13.665Z,14.4004
2023-05-05T03:31:16.152Z,14.4520
2023-05-05T03:32:18.601Z,14.5135
2023-05-05T03:33:21.017Z,14.5882
2023-05-05T03:34:23.487Z,14.6256
2023-05-05T03:35:25.929Z,14.5771
2023-05-05T03:36:29.502Z,14.5695
2023-05-05T03:37:32.018Z,14.5609
2023-05-05T03:38:34.566Z,14.5496
2023-05-05T03:39:36.986Z,14.5122
2023-05-05T03:40:44.196Z,14.4852
2023-05-05T03:41:40.710Z,14.4474
2023-05-05T03:42:43.152Z,14.4667
2023-05-05T03:43:45.816Z,14.4773
2023-05-05T03:44:48.294Z,14.5141
2023-05-05T03:45:50.781Z,14.5683
2023-05-05T03:46:51.116Z,14.6259
2023-05-05T03:47:53.609Z,14.6474
2023-05-05T03:48:56.399Z,14.6328
2023-05-05T03:49:58.816Z,14.5742
2023-05-05T03:51:01.273Z,14.5337
2023-05-05T03:52:04.078Z,14.4797
2023-05-05T03:53:06.543Z,14.5221
2023-05-05T03:54:09.314Z,14.5914
2023-05-05T03:55:11.750Z,14.5923
2023-05-05T03:56:14.224Z,14.6129
2023-05-05T03:57:17.015Z,14.5951
2023-05-05T03:58:19.420Z,14.5268
2023-05-05T03:59:21.862Z,14.5307
2023-05-05T04:00:24.330Z,14.5815
2023-05-05T04:01:27.049Z,14.6278
2023-05-05T04:02:29.591Z,14.7488
2023-05-05T04:03:32.164Z,14.7986
2023-05-05T04:04:34.791Z,14.8193
2023-05-05T04:05:37.323Z,14.8333
2023-05-05T04:06:39.816Z,14.8207
2023-05-05T04:07:42.279Z,14.7877
2023-05-05T04:08:44.757Z,14.7439
2023-05-05T04:09:47.222Z,14.6935
2023-05-05T04:10:49.736Z,14.6578
2023-05-05T04:11:52.224Z,14.5617
2023-05-05T04:12:54.683Z,14.4247
2023-05-05T04:13:57.115Z,14.1966
2023-05-05T04:14:59.635Z,13.9469
2023-05-05T04:16:02.120Z,13.8936
2023-05-05T04:17:04.607Z,13.9018
2023-05-05T04:18:07.104Z,13.8515
2023-05-05T04:19:09.570Z,13.8187
2023-05-05T04:20:12.047Z,13.7775
2023-05-05T04:21:14.492Z,13.7940
2023-05-05T04:22:16.937Z,13.8624
2023-05-05T04:23:19.380Z,13.9362
2023-05-05T04:24:21.831Z,13.9252
2023-05-05T04:25:24.285Z,13.9725
2023-05-05T04:26:26.711Z,14.2046
2023-05-05T04:27:29.228Z,14.6112
2023-05-05T04:28:31.661Z,14.5738
2023-05-05T04:29:34.152Z,14.6933
2023-05-05T04:30:36.636Z,14.7756
2023-05-05T04:31:39.114Z,14.8482
2023-05-05T04:32:41.539Z,14.7937
2023-05-05T04:33:44.105Z,14.7316
2023-05-05T04:34:46.609Z,14.7455
2023-05-05T04:35:49.028Z,14.8399
2023-05-05T04:36:51.478Z,15.3138
2023-05-05T04:37:53.904Z,15.9961
2023-05-05T04:38:56.433Z,15.8103
2023-05-05T04:39:58.900Z,15.3929
2023-05-05T04:41:01.358Z,15.3094
2023-05-05T04:42:03.867Z,15.3772
2023-05-05T04:43:06.276Z,15.4583
2023-05-05T04:44:08.745Z,15.4402
2023-05-05T04:45:11.169Z,15.3092
2023-05-05T04:46:13.691Z,15.1633
2023-05-05T04:47:16.429Z,15.0134
2023-05-05T04:48:18.905Z,14.9109
2023-05-05T04:49:21.411Z,14.7142
2023-05-05T04:50:23.835Z,14.6599
2023-05-05T04:51:26.296Z,14.5995
2023-05-05T04:52:28.781Z,14.4046
2023-05-05T04:53:31.234Z,14.3488
2023-05-05T04:54:33.729Z,14.3920
2023-05-05T04:55:36.167Z,14.3837
2023-05-05T04:56:38.641Z,14.4654
2023-05-05T04:57:41.114Z,14.7480
2023-05-05T04:58:43.575Z,14.8867
2023-05-05T04:59:46.035Z,14.9823
2023-05-05T05:00:48.500Z,15.3000
2023-05-05T05:01:51.185Z,15.4588
2023-05-05T05:02:53.715Z,15.6037
2023-05-05T05:03:56.224Z,15.9814
2023-05-05T05:04:58.670Z,16.0274
2023-05-05T05:06:01.108Z,16.1351
2023-05-05T05:07:03.619Z,15.9036
2023-05-05T05:08:06.026Z,15.7839
2023-05-05T05:09:08.498Z,15.7619
2023-05-05T05:10:11.108Z,15.4209
2023-05-05T05:11:13.657Z,15.0804
2023-05-05T05:12:16.145Z,15.0015
2023-05-05T05:13:18.747Z,14.8928
2023-05-05T05:14:21.252Z,14.7990
2023-05-05T05:15:23.719Z,14.8251
2023-05-05T05:16:26.347Z,14.8636
2023-05-05T05:17:28.839Z,14.8348
2023-05-05T05:18:31.286Z,14.8496
2023-05-05T05:19:33.752Z,14.9795
2023-05-05T05:20:36.218Z,15.1573
2023-05-05T05:21:38.665Z,14.9556
2023-05-05T05:22:41.150Z,15.0037
2023-05-05T05:23:43.606Z,14.8906
2023-05-05T05:24:46.188Z,14.7814
2023-05-05T05:25:48.674Z,14.8256
2023-05-05T05:26:50.891Z,14.8485
2023-05-05T05:28:06.131Z,14.7874
2023-05-05T05:28:54.398Z,14.8791
2023-05-05T05:29:57.083Z,14.8653
2023-05-05T05:30:59.550Z,14.8224
2023-05-05T05:32:02.106Z,14.7693
2023-05-05T05:33:04.539Z,14.7257
2023-05-05T05:34:04.895Z,14.7066
2023-05-05T05:35:07.370Z,14.9990
2023-05-05T05:36:09.817Z,15.1229
2023-05-05T05:37:12.512Z,15.0174
2023-05-05T05:38:14.991Z,14.9940
2023-05-05T05:39:17.670Z,15.1548
2023-05-05T05:40:20.098Z,15.1815
2023-05-05T05:41:22.584Z,15.1661
2023-05-05T05:42:25.251Z,15.1526
2023-05-05T05:43:27.726Z,15.2987
2023-05-05T05:44:30.430Z,15.4770
2023-05-05T05:45:32.910Z,15.4977
2023-05-05T05:46:35.452Z,15.4376
2023-05-05T05:47:38.232Z,15.3644
2023-05-05T05:48:40.694Z,15.4523
2023-05-05T05:49:43.383Z,15.3347
2023-05-05T05:50:45.990Z,15.4066
2023-05-05T05:51:48.420Z,15.4473
2023-05-05T05:52:50.838Z,15.3837
2023-05-05T05:53:53.361Z,15.6479
2023-05-05T05:54:55.780Z,16.3310
2023-05-05T05:55:58.263Z,17.0355
2023-05-05T05:57:00.826Z,17.1045
2023-05-05T05:58:03.257Z,17.4618
2023-05-05T05:59:05.712Z,17.8526
2023-05-05T06:00:08.669Z,18.2673
2023-05-05T06:01:11.379Z,18.2301
2023-05-05T06:02:14.176Z,18.1373
2023-05-05T06:03:16.868Z,18.3014
2023-05-05T06:04:19.678Z,18.3031
2023-05-05T06:05:22.125Z,17.8435
2023-05-05T06:06:24.583Z,17.2670
2023-05-05T06:07:30.688Z,16.8555
2023-05-05T06:08:33.150Z,16.9276
2023-05-05T06:09:35.922Z,16.6356
2023-05-05T06:10:38.357Z,16.8940
2023-05-05T06:11:40.798Z,17.4111
2023-05-05T06:12:43.439Z,17.7977
2023-05-05T06:13:45.884Z,18.6558
2023-05-05T06:14:48.590Z,18.9442
2023-05-05T06:15:51.096Z,18.9848
2023-05-05T06:16:53.619Z,18.4153
2023-05-05T06:17:56.061Z,19.1978
2023-05-05T06:18:58.536Z,19.2641
2023-05-05T06:20:01.348Z,19.3515
2023-05-05T06:21:03.802Z,19.2699
2023-05-05T06:22:06.281Z,19.1708
2023-05-05T06:23:08.742Z,19.7607
2023-05-05T06:24:11.243Z,20.3224
2023-05-05T06:25:13.927Z,20.4713
2023-05-05T06:26:16.418Z,20.1136
2023-05-05T06:27:18.884Z,20.3916
2023-05-05T06:28:21.353Z,20.3100
2023-05-05T06:29:23.958Z,19.5129
2023-05-05T06:30:26.449Z,19.7311
2023-05-05T06:31:28.977Z,19.9847
2023-05-05T06:32:31.435Z,20.2181
2023-05-05T06:33:33.881Z,20.0412
2023-05-05T06:34:36.617Z,20.3975
2023-05-05T06:35:39.044Z,20.1213
2023-05-05T06:36:41.604Z,19.7281
2023-05-05T06:37:44.392Z,19.9654
2023-05-05T06:38:46.828Z,20.1072
2023-05-05T06:39:49.314Z,20.1852
2023-05-05T06:40:51.796Z,19.9953
2023-05-05T06:41:54.271Z,20.2123
2023-05-05T06:42:56.669Z,19.9993
2023-05-05T06:43:59.103Z,20.1315
2023-05-05T06:45:01.902Z,19.1718
2023-05-05T06:46:04.327Z,19.2393
2023-05-05T06:47:06.837Z,19.6183
2023-05-05T06:48:09.335Z,19.7140
2023-05-05T06:49:11.766Z,19.6805
2023-05-05T06:50:14.277Z,19.2071
2023-05-05T06:51:16.756Z,19.4426
2023-05-05T06:52:19.242Z,19.7957
2023-05-05T06:53:21.701Z,20.3205
2023-05-05T06:54:24.198Z,20.1519
2023-05-05T06:55:26.875Z,20.6648
2023-05-05T06:56:29.364Z,21.1833
2023-05-05T06:57:31.880Z,21.0675
2023-05-05T06:58:34.358Z,21.0492
2023-05-05T06:59:36.837Z,21.2358
2023-05-05T07:00:39.412Z,21.9484
2023-05-05T07:01:41.895Z,21.5850
2023-05-05T07:02:42.702Z,21.6366
2023-05-05T07:03:45.284Z,21.4046
2023-05-05T07:04:48.026Z,20.8398
2023-05-05T07:05:50.523Z,20.4350
2023-05-05T07:06:53.005Z,20.6656
2023-05-05T07:07:55.503Z,20.8616
2023-05-05T07:08:57.976Z,21.3696
2023-05-05T07:10:00.483Z,21.2609
2023-05-05T07:11:02.960Z,20.8933
2023-05-05T07:12:05.412Z,21.0936
2023-05-05T07:13:07.977Z,21.1305
2023-05-05T07:14:10.535Z,21.4233
2023-05-05T07:15:26.933Z,22.1925
2023-05-05T07:16:14.190Z,22.6875
2023-05-05T07:17:16.693Z,22.6104
2023-05-05T07:18:19.200Z,22.1759
2023-05-05T07:19:21.717Z,21.9645
2023-05-05T07:20:24.445Z,22.1740
2023-05-05T07:21:27.081Z,22.0752
2023-05-05T07:22:29.623Z,20.2800
2023-05-05T07:23:32.163Z,21.1824
2023-05-05T07:24:34.604Z,21.9698
2023-05-05T07:25:37.119Z,22.4200
2023-05-05T07:26:39.612Z,20.6880
2023-05-05T07:28:42.438Z,21.1588
2023-05-05T07:29:44.957Z,21.0454
2023-05-05T07:30:47.482Z,20.7003
2023-05-05T07:31:50.040Z,20.7578
2023-05-05T07:32:52.541Z,20.1238
2023-05-05T07:33:55.001Z,20.5957
2023-05-05T07:34:57.507Z,20.1306
2023-05-05T07:36:00.457Z,19.9180
2023-05-05T07:37:02.957Z,20.1728
2023-05-05T07:38:05.652Z,21.2989
2023-05-05T07:39:08.448Z,20.4248
2023-05-05T07:40:11.145Z,20.4763
2023-05-05T07:41:13.787Z,20.7603
2023-05-05T07:42:16.282Z,21.5689
2023-05-05T07:43:18.810Z,21.5934
2023-05-05T07:44:21.344Z,20.7023
2023-05-05T07:45:24.112Z,20.6199
2023-05-05T07:46:26.678Z,20.2401
2023-05-05T07:47:29.200Z,19.6238
2023-05-05T07:48:31.666Z,20.1805
2023-05-05T07:49:34.411Z,20.3318
2023-05-05T07:51:40.541Z,21.3374
2023-05-05T07:52:48.416Z,20.5401
2023-05-05T07:53:44.152Z,21.0477
2023-05-05T07:54:46.685Z,20.2784
2023-05-05T07:55:49.405Z,19.5744
2023-05-05T07:56:51.975Z,19.4300
2023-05-05T07:57:54.896Z,19.7617
2023-05-05T07:58:57.409Z,20.0640
2023-05-05T08:00:07.557Z,19.8824
2023-05-05T08:01:10.208Z,20.7691
2023-05-05T08:03:13.023Z,21.2878
2023-05-05T08:04:15.595Z,22.5841
2023-05-05T08:05:18.151Z,21.1783
2023-05-05T08:06:20.655Z,20.7765
2023-05-05T08:07:23.527Z,20.7987
2023-05-05T08:08:26.081Z,21.6921
2023-05-05T08:09:28.557Z,22.8631
2023-05-05T08:10:31.323Z,22.7799
2023-05-05T08:11:33.864Z,22.8733
2023-05-05T08:12:36.327Z,23.0409
2023-05-05T08:13:38.836Z,22.6927
2023-05-05T08:14:41.350Z,22.3498
2023-05-05T08:15:44.062Z,22.9038
2023-05-05T08:16:46.558Z,23.5429
2023-05-05T08:17:49.492Z,23.5710
2023-05-05T08:18:52.195Z,23.3131
2023-05-05T08:19:54.678Z,23.5725
2023-05-05T08:20:57.160Z,24.7994
2023-05-05T08:22:01.205Z,25.5927
2023-05-05T08:23:00.322Z,24.9408
2023-05-05T08:24:02.782Z,22.3317
2023-05-05T08:25:05.415Z,21.9093
2023-05-05T08:27:08.187Z,21.9717
2023-05-05T08:28:10.681Z,22.7927
2023-05-05T08:30:14.119Z,22.9834
2023-05-05T08:31:16.635Z,23.2121
2023-05-05T08:32:19.128Z,23.1180
2023-05-05T08:33:21.624Z,23.1242
2023-05-05T08:34:24.113Z,24.2798
2023-05-05T08:35:26.611Z,24.6549
2023-05-05T08:36:29.103Z,24.5663
2023-05-05T08:37:31.672Z,23.4432
2023-05-05T08:38:34.146Z,23.2981
2023-05-05T08:39:36.637Z,23.0406
2023-05-05T08:40:39.147Z,24.3288
2023-05-05T08:41:41.647Z,24.6095
2023-05-05T08:42:44.155Z,23.8654
2023-05-05T08:43:46.652Z,23.0821
2023-05-05T08:44:49.641Z,22.5930
2023-05-05T08:45:52.155Z,22.1151
2023-05-05T08:46:54.694Z,21.9993
2023-05-05T08:47:57.168Z,22.8111
2023-05-05T08:48:59.672Z,21.6588
2023-05-05T08:50:02.283Z,21.5685
2023-05-05T08:51:05.670Z,21.6668
2023-05-05T08:52:08.256Z,21.4672
2023-05-05T08:53:10.742Z,21.1384
2023-05-05T08:54:13.245Z,21.3800
2023-05-05T08:55:15.826Z,21.7612
2023-05-05T08:57:18.689Z,21.4244
2023-05-05T08:58:21.188Z,22.3978
2023-05-05T08:59:23.672Z,23.2767
2023-05-05T09:00:26.164Z,23.1791
2023-05-05T09:02:29.511Z,23.6717
2023-05-05T09:03:32.040Z,23.4743
2023-05-05T09:04:34.614Z,24.3701
2023-05-05T09:05:37.356Z,24.6822
2023-05-05T09:06:39.805Z,24.2082
2023-05-05T09:07:42.312Z,24.7705
2023-05-05T09:08:44.596Z,25.2556
2023-05-05T09:09:47.072Z,24.4121
2023-05-05T09:10:52.929Z,23.6084
2023-05-05T09:11:55.487Z,23.4642
2023-05-05T09:12:57.989Z,22.7941
2023-05-05T09:14:00.494Z,22.8619
2023-05-05T09:15:02.996Z,22.9550
2023-05-05T09:16:05.525Z,23.7610
2023-05-05T09:17:08.002Z,22.7315
2023-05-05T09:18:10.572Z,22.4168
2023-05-05T09:19:13.019Z,22.8873
2023-05-05T09:20:15.519Z,22.7905
2023-05-05T09:21:18.003Z,23.4682
2023-05-05T09:22:20.492Z,22.1296
2023-05-05T09:23:22.991Z,21.3757
2023-05-05T09:24:25.485Z,22.7401
2023-05-05T09:25:27.978Z,23.0142
2023-05-05T09:26:30.486Z,23.3845
2023-05-05T09:27:32.986Z,22.8163
2023-05-05T09:28:35.490Z,22.6776
2023-05-05T09:29:38.002Z,22.8816
2023-05-05T09:30:40.269Z,22.9289
2023-05-05T09:31:42.769Z,24.7235
2023-05-05T09:32:43.849Z,24.6905
2023-05-05T09:34:47.003Z,24.8057
2023-05-05T09:35:49.239Z,23.4218
2023-05-05T09:36:51.743Z,23.2908
2023-05-05T09:37:54.235Z,23.3513
2023-05-05T09:38:58.780Z,23.9416
2023-05-05T09:39:57.487Z,24.7541
2023-05-05T09:40:59.970Z,25.1755
2023-05-05T09:42:02.437Z,25.0013
2023-05-05T09:43:04.962Z,25.6888
2023-05-05T09:44:07.461Z,25.7353
2023-05-05T09:45:10.109Z,25.7020
2023-05-05T09:46:12.662Z,25.7215
2023-05-05T09:47:28.539Z,25.6021
2023-05-05T09:48:16.498Z,24.6675
2023-05-05T09:49:18.998Z,24.6441
2023-05-05T09:50:21.492Z,25.0269
2023-05-05T09:51:23.950Z,24.9365
2023-05-05T09:52:26.502Z,24.3772
2023-05-05T09:53:28.980Z,23.9371
2023-05-05T09:54:31.487Z,23.4366
2023-05-05T09:55:34.324Z,24.3948
2023-05-05T09:56:36.834Z,25.2182
2023-05-05T09:57:39.372Z,25.9319
2023-05-05T09:58:41.967Z,26.0955
2023-05-05T09:59:44.477Z,25.2381
2023-05-05T10:00:46.989Z,25.0223
2023-05-05T10:01:49.510Z,24.0018
2023-05-05T10:02:52.034Z,23.8923
2023-05-05T10:03:54.516Z,24.9193
2023-05-05T10:04:57.144Z,24.4768
2023-05-05T10:05:59.674Z,24.2234
2023-05-05T10:07:02.179Z,24.0134
2023-05-05T10:08:04.679Z,24.4050
2023-05-05T10:09:07.177Z,25.2878
2023-05-05T10:10:09.862Z,24.8921
2023-05-05T10:11:12.640Z,23.5093
2023-05-05T10:12:15.357Z,23.8001
2023-05-05T10:13:17.944Z,23.1523
2023-05-05T10:14:20.551Z,23.5956
2023-05-05T10:15:23.047Z,24.0703
2023-05-05T10:16:26.796Z,25.1448
2023-05-05T10:17:26.287Z,25.1679
2023-05-05T10:18:28.782Z,24.4328
2023-05-05T10:19:31.265Z,24.8726
2023-05-05T10:20:33.795Z,24.2375
2023-05-05T10:21:36.283Z,23.4831
2023-05-05T10:22:38.933Z,23.6540
2023-05-05T10:23:41.418Z,24.1097
2023-05-05T10:24:43.915Z,24.6533
2023-05-05T10:25:46.434Z,25.3936
2023-05-05T10:26:48.921Z,25.4203
2023-05-05T10:27:51.694Z,25.2861
2023-05-05T10:28:54.176Z,26.0584
2023-05-05T10:29:56.699Z,25.1638
2023-05-05T10:30:59.202Z,23.8436
2023-05-05T10:32:08.739Z,22.8215
2023-05-05T10:33:27.249Z,22.1248
2023-05-05T10:34:08.464Z,22.4457
2023-05-05T10:35:10.979Z,22.5796
2023-05-05T10:36:13.533Z,23.6245
2023-05-05T10:37:15.996Z,22.7852
2023-05-05T10:38:18.531Z,23.4903
2023-05-05T10:39:21.010Z,23.9614
2023-05-05T10:40:23.555Z,23.1235
2023-05-05T10:41:26.192Z,22.4187
2023-05-05T10:42:28.975Z,22.5839
2023-05-05T10:43:31.497Z,22.5083
2023-05-05T10:44:33.985Z,22.7056
2023-05-05T10:45:36.570Z,23.6917
2023-05-05T10:46:39.175Z,24.3572
2023-05-05T10:47:41.700Z,24.6621
2023-05-05T10:48:44.273Z,23.7900
2023-05-05T10:49:46.782Z,23.6276
2023-05-05T10:50:49.288Z,23.5814
2023-05-05T10:52:52.011Z,23.5045
2023-05-05T10:54:02.225Z,24.3258
2023-05-05T10:55:04.705Z,23.6474
2023-05-05T10:56:07.187Z,23.3625
2023-05-05T10:57:09.714Z,23.4899
2023-05-05T10:58:12.239Z,24.1733
2023-05-05T10:59:15.569Z,23.9577
2023-05-05T11:00:18.104Z,24.3252
2023-05-05T11:01:20.688Z,24.6477
2023-05-05T11:02:23.343Z,23.6135
2023-05-05T11:03:23.397Z,22.7558
2023-05-05T11:04:25.987Z,22.9941
2023-05-05T11:05:28.457Z,23.6177
2023-05-05T11:06:31.172Z,24.3337
2023-05-05T11:07:33.671Z,23.9471
2023-05-05T11:08:36.149Z,24.0277
2023-05-05T11:09:38.667Z,23.3706
2023-05-05T11:10:41.135Z,22.7709
2023-05-05T11:11:43.791Z,23.5671
2023-05-05T11:12:46.350Z,23.1934
2023-05-05T11:13:49.049Z,24.3781
2023-05-05T11:14:51.628Z,23.9934
2023-05-05T11:15:54.235Z,23.6571
2023-05-05T11:16:56.949Z,24.1329
2023-05-05T11:17:59.597Z,24.8154
2023-05-05T11:19:02.111Z,25.1613
2023-05-05T11:20:04.670Z,25.2260
2023-05-05T11:21:07.168Z,25.6128
2023-05-05T11:22:09.672Z,25.5144
2023-05-05T11:23:14.003Z,25.5675
2023-05-05T11:24:14.962Z,25.8395
2023-05-05T11:25:18.255Z,26.1365
2023-05-05T11:26:26.008Z,25.9789
2023-05-05T11:27:21.180Z,24.5060
2023-05-05T11:28:23.729Z,25.6530
2023-05-05T11:29:26.222Z,26.3718
2023-05-05T11:30:29.409Z,25.8194
2023-05-05T11:31:32.029Z,25.6458
2023-05-05T11:32:34.604Z,26.6009
2023-05-05T11:33:37.099Z,26.2461
2023-05-05T11:34:39.599Z,25.8576
2023-05-05T11:35:42.082Z,25.4458
2023-05-05T11:36:44.589Z,25.1715
2023-05-05T11:37:47.093Z,24.4559
2023-05-05T11:38:49.585Z,24.4992
2023-05-05T11:39:52.075Z,24.7199
2023-05-05T11:40:54.783Z,24.2328
2023-05-05T11:41:57.241Z,23.4434
2023-05-05T11:42:59.733Z,24.0459
2023-05-05T11:44:02.240Z,24.7089
2023-05-05T11:45:04.724Z,25.5510
2023-05-05T11:46:07.262Z,24.8382
2023-05-05T11:47:09.726Z,24.7308
2023-05-05T11:48:12.532Z,23.6900
2023-05-05T11:49:14.998Z,24.1248
2023-05-05T11:50:17.738Z,25.2070
2023-05-05T11:51:20.257Z,25.3594
2023-05-05T11:52:22.750Z,25.4989
2023-05-05T11:53:25.295Z,24.9579
2023-05-05T11:54:27.829Z,24.5844
2023-05-05T11:55:30.287Z,23.9879
2023-05-05T11:56:32.798Z,24.1004
2023-05-05T11:57:35.286Z,24.8913
2023-05-05T11:58:37.791Z,24.9810
2023-05-05T11:59:40.290Z,24.0767
2023-05-05T12:00:42.799Z,24.3561
2023-05-05T12:01:45.308Z,25.2579
2023-05-05T12:02:47.862Z,24.7469
2023-05-05T12:03:50.746Z,24.7733
2023-05-05T12:04:53.380Z,25.2051
2023-05-05T12:05:56.032Z,25.5389
2023-05-05T12:06:58.461Z,25.7271
2023-05-05T12:08:00.936Z,24.3888
2023-05-05T12:09:03.409Z,25.0206
2023-05-05T12:10:05.966Z,24.8040
2023-05-05T12:11:08.458Z,25.5268
2023-05-05T12:12:10.946Z,25.8790
2023-05-05T12:13:13.468Z,26.6551
2023-05-05T12:14:16.103Z,25.5243
2023-05-05T12:15:18.560Z,25.8039
2023-05-05T12:16:21.147Z,25.9682
2023-05-05T12:17:23.625Z,25.2105
2023-05-05T12:18:26.085Z,25.4420
2023-05-05T12:19:28.579Z,24.5933
2023-05-05T12:20:31.076Z,25.4318
2023-05-05T12:21:33.566Z,26.1143
2023-05-05T12:22:36.118Z,26.7351
2023-05-05T12:23:38.627Z,25.6673
2023-05-05T12:24:41.104Z,26.0769
2023-05-05T12:25:43.559Z,25.6327
2023-05-05T12:26:46.066Z,25.9239
2023-05-05T12:27:48.534Z,26.2122
2023-05-05T12:28:51.057Z,25.9275
2023-05-05T12:29:53.541Z,26.1091
2023-05-05T12:30:56.053Z,25.3913
2023-05-05T12:31:58.600Z,25.5545
2023-05-05T12:33:01.165Z,25.4873
2023-05-05T12:34:03.650Z,25.2637
2023-05-05T12:35:06.155Z,25.4185
2023-05-05T12:36:08.621Z,25.3237
2023-05-05T12:37:11.138Z,25.4552
2023-05-05T12:38:13.599Z,25.3858
2023-05-05T12:39:16.100Z,25.2573
2023-05-05T12:40:18.650Z,24.8952
2023-05-05T12:41:21.159Z,25.3316
2023-05-05T12:42:23.626Z,26.4446
2023-05-05T12:43:26.140Z,25.0214
2023-05-05T12:44:28.468Z,25.7002
2023-05-05T12:45:31.282Z,25.7065